Time;durP1;ratioP1;P1;durP2;ratioP2;P2;SDS_P1;SDS_P2;PMS_P1;PMS_P2;Temp;Humidity;BMP_temperature;BMP_pressure;BME280_temperature;BME280_humidity;BME280_pressure;Samples;Min_cycle;Max_cycle;Signal;HPM_P1;HPM_P2
2023/01/23 00:04:57;;;;;;;16.47;15.07;;;4.60;99.90;;;;;;10512533;28;20200;-82
2023/01/23 00:09:59;;;;;;;15.90;14.50;;;4.60;99.90;;;;;;10518182;28;20248;-82
2023/01/23 00:15:02;;;;;;;16.50;15.10;;;4.70;99.90;;;;;;10510554;28;20878;-82
2023/01/23 00:20:06;;;;;;;16.57;14.97;;;4.60;99.90;;;;;;10516027;28;20714;-82
2023/01/23 00:25:08;;;;;;;16.87;15.47;;;4.60;99.90;;;;;;10499818;28;20200;-81
2023/01/23 00:30:14;;;;;;;17.93;16.07;;;4.50;99.90;;;;;;10493433;28;20295;-81
2023/01/23 00:35:17;;;;;;;17.30;15.70;;;4.60;99.90;;;;;;10515586;28;20310;-82
2023/01/23 00:40:19;;;;;;;16.50;15.00;;;4.50;99.90;;;;;;10474093;28;20254;-82
2023/01/23 00:45:22;;;;;;;17.05;15.55;;;4.50;99.90;;;;;;10507230;28;20200;-82
2023/01/23 00:50:24;;;;;;;16.33;14.83;;;4.70;99.90;;;;;;10504685;28;20224;-81
2023/01/23 00:55:26;;;;;;;17.23;15.63;;;4.80;99.90;;;;;;10513870;28;20223;-79
2023/01/23 01:00:30;;;;;;;16.77;15.23;;;4.80;99.90;;;;;;10515464;28;20691;-83
2023/01/23 01:05:32;;;;;;;15.37;13.97;;;4.80;99.90;;;;;;10514160;28;20819;-83
2023/01/23 01:10:34;;;;;;;15.68;14.27;;;4.70;99.90;;;;;;10483704;28;20289;-82
2023/01/23 01:15:38;;;;;;;16.17;14.77;;;4.80;99.90;;;;;;10505442;28;20593;-79
2023/01/23 01:20:41;;;;;;;14.97;13.67;;;4.80;99.90;;;;;;10527037;28;20226;-81
2023/01/23 01:25:43;;;;;;;16.00;14.60;;;4.90;99.90;;;;;;10530477;28;20442;-81
2023/01/23 01:30:47;;;;;;;15.30;13.93;;;4.90;99.90;;;;;;10512768;28;20223;-80
2023/01/23 01:35:50;;;;;;;16.20;14.80;;;4.80;99.90;;;;;;10490042;28;20643;-81
2023/01/23 01:40:56;;;;;;;14.80;13.40;;;4.80;99.90;;;;;;10523309;28;20887;-83
2023/01/23 01:46:21;;;;;;;14.97;13.60;;;4.70;99.90;;;;;;10504712;28;20271;-82
2023/01/23 01:51:29;;;;;;;14.90;13.50;;;4.70;99.90;;;;;;10506156;28;20230;-82
2023/01/23 01:56:36;;;;;;;14.27;13.00;;;4.60;99.90;;;;;;10527576;22;20224;-78
2023/01/23 02:01:41;;;;;;;14.33;13.10;;;4.70;99.90;;;;;;10533054;28;20429;-78
2023/01/23 02:06:44;;;;;;;16.20;14.70;;;4.70;99.90;;;;;;10536493;28;20653;-80
2023/01/23 02:11:46;;;;;;;15.77;14.27;;;4.60;99.90;;;;;;10496918;28;20767;-81
2023/01/23 02:16:51;;;;;;;16.02;14.52;;;4.60;99.90;;;;;;10501745;28;20309;-80
2023/01/23 02:22:03;;;;;;;16.10;14.60;;;4.80;99.90;;;;;;10478083;28;20240;-78
2023/01/23 02:27:07;;;;;;;16.40;14.83;;;4.80;99.90;;;;;;10501885;28;20228;-80
2023/01/23 02:32:10;;;;;;;15.27;13.97;;;4.70;99.90;;;;;;10487566;28;20216;-78
2023/01/23 02:37:13;;;;;;;15.23;13.83;;;4.70;99.90;;;;;;10505386;28;20274;-80
2023/01/23 02:42:17;;;;;;;14.83;13.53;;;4.60;99.90;;;;;;10491240;28;20197;-79
2023/01/23 02:47:24;;;;;;;16.17;14.77;;;4.60;99.90;;;;;;10505649;28;20220;-79
2023/01/23 02:52:26;;;;;;;15.73;14.33;;;4.60;99.90;;;;;;10491163;28;20217;-80
2023/01/23 02:57:30;;;;;;;16.17;14.67;;;4.60;99.90;;;;;;10524771;28;20235;-81
2023/01/23 03:02:32;;;;;;;17.00;15.40;;;4.60;99.90;;;;;;10527830;28;20713;-80
2023/01/23 03:07:34;;;;;;;16.43;15.00;;;4.60;99.90;;;;;;10509492;28;20224;-80
2023/01/23 03:12:42;;;;;;;17.95;16.10;;;4.60;99.90;;;;;;10491756;28;20252;-80
2023/01/23 03:17:44;;;;;;;15.83;14.33;;;4.80;99.90;;;;;;10507335;28;20286;-80
2023/01/23 03:22:46;;;;;;;16.50;15.00;;;4.80;99.90;;;;;;10509837;28;20684;-79
2023/01/23 03:27:50;;;;;;;17.10;15.57;;;4.70;99.90;;;;;;10507121;28;20252;-80
2023/01/23 03:32:52;;;;;;;17.23;15.63;;;4.70;99.90;;;;;;10501512;28;20217;-80
2023/01/23 03:37:54;;;;;;;16.08;14.63;;;4.80;99.90;;;;;;10505202;28;20229;-79
2023/01/23 03:42:58;;;;;;;17.40;15.80;;;4.80;99.90;;;;;;10520793;28;20660;-79
2023/01/23 03:48:03;;;;;;;18.20;16.50;;;4.80;99.90;;;;;;10488806;28;20253;-80
2023/01/23 03:53:05;;;;;;;18.90;17.13;;;4.80;99.90;;;;;;10500499;28;20221;-80
2023/01/23 03:58:09;;;;;;;18.43;16.77;;;4.70;99.90;;;;;;10503437;28;20227;-80
2023/01/23 04:03:15;;;;;;;19.13;17.30;;;4.60;99.90;;;;;;10455062;28;20616;-81
2023/01/23 04:08:17;;;;;;;18.90;17.20;;;4.60;99.90;;;;;;10504281;28;20251;-81
2023/01/23 04:13:21;;;;;;;18.47;16.80;;;4.70;99.90;;;;;;10499309;28;20221;-81
2023/01/23 04:18:23;;;;;;;19.40;17.53;;;4.80;99.90;;;;;;10486374;28;20223;-81
2023/01/23 04:23:26;;;;;;;19.87;18.03;;;4.70;99.90;;;;;;10498131;28;20239;-80
2023/01/23 04:28:30;;;;;;;19.30;17.40;;;4.60;99.90;;;;;;10484509;28;20243;-80
2023/01/23 04:33:33;;;;;;;18.97;17.20;;;4.60;99.90;;;;;;10483957;28;20231;-79
2023/01/23 04:38:36;;;;;;;19.20;17.33;;;4.60;99.90;;;;;;10467822;28;20216;-81
2023/01/23 04:44:18;;;;;;;19.20;17.50;;;4.60;99.90;;;;;;10483200;28;20599;-79
2023/01/23 04:49:24;;;;;;;18.97;17.27;;;4.60;99.90;;;;;;10491151;28;20226;-81
2023/01/23 04:54:26;;;;;;;19.13;17.43;;;4.60;99.90;;;;;;10503493;28;20274;-79
2023/01/23 04:59:30;;;;;;;19.00;17.13;;;4.60;99.90;;;;;;10494407;28;20228;-81
2023/01/23 05:04:33;;;;;;;18.33;16.67;;;4.60;99.90;;;;;;10503148;28;20574;-81
2023/01/23 05:09:35;;;;;;;18.87;17.03;;;4.60;99.90;;;;;;10507668;28;20224;-81
2023/01/23 05:14:39;;;;;;;20.50;18.53;;;4.60;99.90;;;;;;10482696;28;20223;-79
2023/01/23 05:19:41;;;;;;;19.60;17.90;;;4.50;99.90;;;;;;10509986;28;20228;-80
2023/01/23 05:24:45;;;;;;;17.70;15.90;;;4.60;99.90;;;;;;10504699;28;20193;-80
2023/01/23 05:29:49;;;;;;;19.00;17.20;;;4.60;99.90;;;;;;10491089;28;20216;-78
2023/01/23 05:34:56;;;;;;;17.73;15.93;;;4.60;99.90;;;;;;10481520;28;20616;-80
2023/01/23 05:40:02;;;;;;;19.23;17.33;;;4.60;99.90;;;;;;10495502;28;20699;-81
2023/01/23 05:45:25;;;;;;;19.80;17.90;;;4.70;99.90;;;;;;10505064;28;20208;-79
2023/01/23 05:50:28;;;;;;;19.50;17.70;;;4.70;99.90;;;;;;10511644;28;20699;-79
2023/01/23 05:55:30;;;;;;;19.37;17.57;;;4.70;99.90;;;;;;10498484;28;20233;-81
2023/01/23 06:00:52;;;;;;;19.35;17.50;;;4.70;99.90;;;;;;10489175;28;20230;-79
2023/01/23 06:12:59;;;;;;;20.23;18.23;;;4.80;99.90;;;;;;10562867;28;20211;-79
2023/01/23 06:18:10;;;;;;;18.80;16.90;;;4.80;99.90;;;;;;10466976;28;20723;-79
2023/01/23 06:23:13;;;;;;;19.70;17.80;;;4.70;99.90;;;;;;10505430;28;20258;-79
2023/01/23 06:28:15;;;;;;;19.10;17.20;;;4.70;99.90;;;;;;10486532;28;20759;-79
2023/01/23 06:33:20;;;;;;;19.20;17.40;;;4.60;99.90;;;;;;10517596;28;20226;-79
2023/01/23 06:38:22;;;;;;;18.83;17.03;;;4.60;99.90;;;;;;10496650;28;20225;-79
2023/01/23 06:43:27;;;;;;;19.67;17.80;;;4.60;99.90;;;;;;10528393;28;20292;-79
2023/01/23 06:48:31;;;;;;;20.10;18.20;;;4.60;99.90;;;;;;10493646;28;20213;-78
2023/01/23 06:53:37;;;;;;;19.83;17.83;;;4.60;99.90;;;;;;10543662;28;20226;-79
2023/01/23 06:58:53;;;;;;;18.87;17.13;;;4.60;99.90;;;;;;10496900;28;20252;-81
2023/01/23 07:04:07;;;;;;;20.40;18.20;;;4.60;99.90;;;;;;10410086;28;20201;-79
2023/01/23 07:09:13;;;;;;;18.93;16.93;;;4.80;99.90;;;;;;10492647;28;20551;-77
2023/01/23 07:14:17;;;;;;;19.33;17.50;;;4.80;99.90;;;;;;10531192;28;20212;-80
2023/01/23 07:19:23;;;;;;;21.40;18.33;;;4.70;99.90;;;;;;10510744;28;20247;-80
2023/01/23 07:24:27;;;;;;;18.93;17.17;;;4.70;99.90;;;;;;10525148;28;20204;-79
2023/01/23 07:29:29;;;;;;;20.33;18.17;;;4.70;99.90;;;;;;10525862;28;20231;-80
2023/01/23 07:34:33;;;;;;;20.43;18.30;;;4.70;99.90;;;;;;10512451;28;20295;-79
2023/01/23 07:39:35;;;;;;;20.53;18.30;;;4.70;99.90;;;;;;10524468;28;20211;-78
2023/01/23 07:44:37;;;;;;;20.57;18.47;;;4.60;99.90;;;;;;10543109;28;20211;-81
2023/01/23 07:49:41;;;;;;;21.47;19.30;;;4.70;99.90;;;;;;10539681;28;20255;-80
2023/01/23 07:54:43;;;;;;;19.33;17.37;;;4.70;99.90;;;;;;10514162;28;20216;-81
2023/01/23 07:59:45;;;;;;;20.83;18.70;;;4.70;99.90;;;;;;10594791;22;20234;-85
2023/01/23 08:04:49;;;;;;;20.57;18.47;;;4.80;99.90;;;;;;10583776;28;20207;-81
2023/01/23 08:09:51;;;;;;;20.37;18.30;;;4.70;99.90;;;;;;10565472;28;20231;-83
2023/01/23 08:14:53;;;;;;;21.63;19.43;;;4.70;99.90;;;;;;10557838;28;20219;-81
2023/01/23 08:19:56;;;;;;;20.33;18.23;;;4.70;99.90;;;;;;10558561;28;20269;-80
2023/01/23 08:24:58;;;;;;;20.97;18.80;;;4.80;99.90;;;;;;10558102;28;20204;-80
2023/01/23 08:30:00;;;;;;;20.40;18.30;;;4.80;99.90;;;;;;10564724;28;20300;-80
2023/01/23 08:35:04;;;;;;;22.73;20.33;;;4.80;99.90;;;;;;10549413;28;20204;-80
2023/01/23 08:40:07;;;;;;;20.63;18.57;;;4.90;99.90;;;;;;10530260;28;20228;-81
2023/01/23 08:45:09;;;;;;;21.37;19.00;;;4.80;99.90;;;;;;10559581;28;20200;-79
2023/01/23 08:50:13;;;;;;;21.63;19.37;;;4.80;99.90;;;;;;10575019;28;20227;-80
2023/01/23 08:55:15;;;;;;;22.23;19.73;;;4.80;99.90;;;;;;10548160;28;20228;-81
2023/01/23 09:00:18;;;;;;;22.73;20.33;;;4.70;99.90;;;;;;10543455;28;20234;-81
2023/01/23 09:05:21;;;;;;;22.20;19.77;;;4.70;99.90;;;;;;10555709;28;20200;-79
2023/01/23 09:10:24;;;;;;;20.73;18.53;;;4.70;99.90;;;;;;10552931;28;20273;-80
2023/01/23 09:15:26;;;;;;;20.00;17.90;;;4.70;99.90;;;;;;10544232;28;20215;-81
2023/01/23 09:20:29;;;;;;;20.87;18.67;;;4.80;99.90;;;;;;10555737;28;20269;-80
2023/01/23 09:25:31;;;;;;;19.90;17.83;;;4.90;99.90;;;;;;10552694;28;20289;-79
2023/01/23 09:30:33;;;;;;;19.80;17.80;;;5.20;99.40;;;;;;10554191;28;20675;-79
2023/01/23 09:35:36;;;;;;;16.38;14.82;;;5.20;99.50;;;;;;10543360;28;20223;-81
2023/01/23 09:40:46;;;;;;;16.03;14.43;;;5.30;98.60;;;;;;10527301;28;20250;-80
2023/01/23 09:45:57;;;;;;;16.40;14.77;;;5.30;99.20;;;;;;10509096;28;20417;-81
2023/01/23 09:51:03;;;;;;;16.67;15.00;;;5.20;98.60;;;;;;10540985;28;20246;-80
2023/01/23 09:56:17;;;;;;;15.67;14.13;;;5.20;98.70;;;;;;10553127;28;20223;-81
2023/01/23 10:01:19;;;;;;;15.53;13.97;;;5.20;98.00;;;;;;10505541;28;20232;-80
2023/01/23 10:06:25;;;;;;;15.53;14.03;;;5.10;98.50;;;;;;10522970;28;20287;-81
2023/01/23 10:11:41;;;;;;;17.13;15.43;;;5.10;99.10;;;;;;10523160;28;20718;-82
2023/01/23 10:16:56;;;;;;;17.63;15.60;;;5.20;98.90;;;;;;10523316;28;20310;-82
2023/01/23 10:22:03;;;;;;;14.73;13.35;;;5.30;99.20;;;;;;10542236;28;20543;-81
2023/01/23 10:27:17;;;;;;;15.57;13.97;;;5.60;98.50;;;;;;10546779;28;20238;-80
2023/01/23 10:32:26;;;;;;;15.30;13.80;;;5.80;97.70;;;;;;10545221;28;20800;-82
2023/01/23 10:37:40;;;;;;;16.53;14.80;;;5.80;97.40;;;;;;10522382;28;20299;-81
2023/01/23 10:42:43;;;;;;;16.00;14.40;;;5.70;97.70;;;;;;10470562;28;20202;-80
2023/01/23 10:47:47;;;;;;;15.23;13.73;;;5.50;98.50;;;;;;10530177;28;20225;-80
2023/01/23 10:52:51;;;;;;;15.23;13.70;;;5.40;97.70;;;;;;10539228;28;20214;-80
2023/01/23 10:57:55;;;;;;;15.93;14.43;;;5.30;97.70;;;;;;10523717;28;20223;-80
2023/01/23 11:03:17;;;;;;;18.83;16.93;;;5.20;98.60;;;;;;10550144;28;20192;-80
2023/01/23 11:08:26;;;;;;;16.90;15.20;;;5.20;98.90;;;;;;10539022;28;20215;-81
2023/01/23 11:13:30;;;;;;;16.93;15.20;;;5.20;99.00;;;;;;10570265;28;20762;-83
2023/01/23 11:18:33;;;;;;;18.33;16.20;;;5.30;99.00;;;;;;10534553;28;20526;-80
2023/01/23 11:23:37;;;;;;;18.30;16.60;;;5.40;99.10;;;;;;10543558;28;20226;-80
2023/01/23 11:28:47;;;;;;;18.33;16.53;;;5.60;99.10;;;;;;10502360;28;20212;-81
2023/01/23 11:33:56;;;;;;;16.63;14.93;;;5.70;98.20;;;;;;10547044;28;20212;-81
2023/01/23 11:39:06;;;;;;;16.77;15.17;;;5.60;98.60;;;;;;10555302;28;20701;-80
2023/01/23 11:44:16;;;;;;;18.70;16.27;;;5.60;98.50;;;;;;10528571;28;20204;-80
2023/01/23 11:49:31;;;;;;;18.60;16.70;;;5.60;98.70;;;;;;10532146;28;20656;-81
2023/01/23 11:54:47;;;;;;;18.23;16.33;;;5.50;97.70;;;;;;10512232;28;20211;-82
2023/01/23 12:00:03;;;;;;;18.40;16.57;;;5.40;98.80;;;;;;10519570;28;20276;-82
2023/01/23 12:05:28;;;;;;;18.40;16.47;;;5.40;98.50;;;;;;10557060;28;20201;-81
2023/01/23 12:10:45;;;;;;;17.63;15.83;;;5.40;98.00;;;;;;10509179;28;20219;-80
2023/01/23 12:16:03;;;;;;;18.83;16.53;;;5.30;97.70;;;;;;10536131;28;20196;-81
2023/01/23 12:21:11;;;;;;;17.80;16.00;;;5.30;97.50;;;;;;10533446;28;20683;-81
2023/01/23 12:26:18;;;;;;;18.37;16.40;;;5.20;98.60;;;;;;10519566;28;20192;-80
2023/01/23 12:31:36;;;;;;;19.00;17.10;;;5.30;98.30;;;;;;10552615;28;20393;-80
2023/01/23 12:36:57;;;;;;;23.17;19.40;;;5.40;98.80;;;;;;10542061;28;20192;-81
2023/01/23 12:42:04;;;;;;;17.80;15.40;;;5.60;98.30;;;;;;10559445;28;20187;-81
2023/01/23 12:47:11;;;;;;;20.37;17.57;;;5.60;98.70;;;;;;10553238;28;20220;-80
2023/01/23 12:52:20;;;;;;;18.17;16.37;;;5.70;98.70;;;;;;10537728;28;20282;-80
2023/01/23 13:02:48;;;;;;;18.30;16.40;;;5.80;99.30;;;;;;10528331;28;20200;-82
2023/01/23 13:07:57;;;;;;;17.83;15.97;;;6.00;98.20;;;;;;10557785;28;20219;-82
2023/01/23 13:13:00;;;;;;;18.67;16.00;;;6.00;98.40;;;;;;10567505;28;20199;-82
2023/01/23 13:18:04;;;;;;;18.57;15.90;;;5.90;98.70;;;;;;10559065;28;20235;-82
2023/01/23 13:23:22;;;;;;;18.07;16.13;;;6.00;98.50;;;;;;10567196;28;20315;-82
2023/01/23 13:28:34;;;;;;;18.80;15.10;;;6.20;98.10;;;;;;10579454;28;20464;-82
2023/01/23 13:33:54;;;;;;;17.30;15.50;;;6.20;98.40;;;;;;10566530;28;20195;-82
2023/01/23 13:39:20;;;;;;;17.48;15.60;;;6.30;97.90;;;;;;10540138;28;20623;-81
2023/01/23 13:44:28;;;;;;;16.17;14.47;;;6.40;97.70;;;;;;10548245;28;20731;-82
2023/01/23 13:49:54;;;;;;;17.53;15.50;;;6.30;97.80;;;;;;10532369;28;20573;-82
2023/01/23 14:00:21;;;;;;;18.57;16.40;;;6.10;98.60;;;;;;10574521;28;20223;-81
2023/01/23 14:05:27;;;;;;;16.60;14.87;;;6.00;98.40;;;;;;10526392;28;20567;-80
2023/01/23 14:10:31;;;;;;;16.20;14.37;;;6.00;97.90;;;;;;10522342;28;20258;-81
2023/01/23 14:21:03;;;;;;;16.23;14.57;;;5.90;98.90;;;;;;10526741;28;20754;-81
2023/01/23 14:26:08;;;;;;;17.00;15.20;;;5.90;98.80;;;;;;10526043;28;20195;-81
2023/01/23 14:31:24;;;;;;;15.77;14.17;;;5.90;99.10;;;;;;10533496;28;20303;-81
2023/01/23 14:36:27;;;;;;;16.63;14.60;;;5.90;98.40;;;;;;10513440;28;20215;-80
2023/01/23 14:41:32;;;;;;;15.27;13.77;;;5.80;98.90;;;;;;10541281;28;20212;-80
2023/01/23 14:46:38;;;;;;;16.53;14.43;;;5.80;99.00;;;;;;10522941;28;20192;-80
2023/01/23 14:51:54;;;;;;;17.70;15.00;;;5.80;99.50;;;;;;10540568;28;20204;-80
2023/01/23 14:56:58;;;;;;;15.97;14.37;;;5.80;99.50;;;;;;10520189;28;20262;-79
2023/01/23 15:02:03;;;;;;;15.87;14.27;;;5.80;99.40;;;;;;10522655;28;20201;-80
2023/01/23 15:07:05;;;;;;;16.23;14.52;;;5.80;99.40;;;;;;10537748;28;20207;-80
2023/01/23 15:12:15;;;;;;;17.83;15.93;;;6.00;99.00;;;;;;10523175;28;20227;-80
2023/01/23 15:17:20;;;;;;;16.53;14.77;;;6.00;99.00;;;;;;10529671;28;20707;-80
2023/01/23 15:22:27;;;;;;;17.90;16.10;;;5.80;99.20;;;;;;10507227;28;20644;-80
2023/01/23 15:27:32;;;;;;;17.73;16.00;;;5.80;98.90;;;;;;10540874;28;20213;-80
2023/01/23 15:32:39;;;;;;;16.03;14.43;;;5.70;99.10;;;;;;10540191;28;20199;-80
2023/01/23 15:37:47;;;;;;;16.73;15.13;;;5.70;99.10;;;;;;10542704;28;20310;-80
2023/01/23 15:43:02;;;;;;;17.00;15.40;;;5.80;99.40;;;;;;10543964;28;20198;-81
2023/01/23 15:48:06;;;;;;;16.90;14.43;;;5.80;99.70;;;;;;10541112;28;20294;-80
2023/01/23 15:53:12;;;;;;;17.02;15.32;;;5.70;99.50;;;;;;10540812;28;20633;-80
2023/01/23 15:58:14;;;;;;;19.10;17.13;;;5.80;99.30;;;;;;10546119;28;20265;-80
2023/01/23 16:03:18;;;;;;;17.73;15.93;;;5.80;99.60;;;;;;10553276;28;20207;-80
2023/01/23 16:08:21;;;;;;;19.03;17.13;;;5.70;99.70;;;;;;10549091;28;20200;-80
2023/01/23 16:19:26;;;;;;;17.27;15.57;;;5.80;99.90;;;;;;10526846;28;20232;-79
2023/01/23 16:29:58;;;;;;;17.98;16.25;;;5.70;99.50;;;;;;10509422;28;20234;-80
2023/01/23 16:35:02;;;;;;;17.20;15.50;;;5.80;99.40;;;;;;10517367;28;20558;-81
2023/01/23 16:40:04;;;;;;;18.13;16.43;;;5.80;99.90;;;;;;10555658;28;20208;-81
2023/01/23 16:45:14;;;;;;;19.53;17.50;;;5.80;99.90;;;;;;10530196;28;20208;-83
2023/01/23 16:50:21;;;;;;;19.07;15.80;;;5.70;99.70;;;;;;10566667;28;20234;-83
2023/01/23 16:55:27;;;;;;;22.13;19.83;;;5.70;99.90;;;;;;10553815;28;20289;-83
2023/01/23 17:00:29;;;;;;;22.70;20.25;;;5.70;99.90;;;;;;10551287;28;20291;-84
2023/01/23 17:05:32;;;;;;;16.97;15.37;;;5.80;99.90;;;;;;10588125;28;20188;-84
2023/01/23 17:10:34;;;;;;;18.48;16.60;;;5.90;99.80;;;;;;10537086;28;20239;-83
2023/01/23 17:15:37;;;;;;;18.35;16.70;;;5.90;99.90;;;;;;10570474;28;20212;-84
2023/01/23 17:20:40;;;;;;;19.10;17.10;;;6.10;99.50;;;;;;10531052;28;20696;-81
2023/01/23 17:25:46;;;;;;;19.37;17.47;;;6.00;99.80;;;;;;10528615;28;20670;-82
2023/01/23 17:30:52;;;;;;;17.90;16.10;;;5.90;99.90;;;;;;10539044;28;20211;-82
2023/01/23 17:35:55;;;;;;;18.33;16.63;;;5.80;99.90;;;;;;10551334;28;20370;-81
2023/01/23 17:40:57;;;;;;;19.10;17.20;;;5.70;99.70;;;;;;10561914;28;20231;-82
2023/01/23 17:45:59;;;;;;;19.02;17.13;;;5.70;99.90;;;;;;10533113;28;20188;-80
2023/01/23 17:51:03;;;;;;;17.60;15.90;;;5.80;99.90;;;;;;10549435;28;20234;-80
2023/01/23 17:56:06;;;;;;;18.13;16.23;;;5.80;99.80;;;;;;10544071;28;20214;-81
2023/01/23 18:01:19;;;;;;;18.97;16.97;;;5.80;99.90;;;;;;10534875;28;20246;-81
2023/01/23 18:06:22;;;;;;;18.87;16.97;;;5.70;99.90;;;;;;10560364;28;20635;-81
2023/01/23 18:11:25;;;;;;;17.53;15.73;;;5.70;99.90;;;;;;10516335;28;20226;-81
2023/01/23 18:16:32;;;;;;;18.27;16.43;;;5.70;99.90;;;;;;10494195;28;20212;-81
2023/01/23 18:21:37;;;;;;;19.57;17.30;;;5.70;99.90;;;;;;10500872;28;20200;-79
2023/01/23 18:26:45;;;;;;;19.07;17.13;;;5.70;99.90;;;;;;10527503;28;20574;-82
2023/01/23 18:32:04;;;;;;;20.77;18.67;;;5.70;99.90;;;;;;10497012;28;20287;-82
2023/01/23 18:37:18;;;;;;;19.10;17.10;;;5.70;99.90;;;;;;10512746;28;20224;-82
2023/01/23 18:42:23;;;;;;;20.20;18.17;;;5.90;99.90;;;;;;10522217;28;20307;-80
2023/01/23 18:47:26;;;;;;;20.50;18.30;;;5.90;99.90;;;;;;10513083;28;20304;-80
2023/01/23 18:52:43;;;;;;;17.97;16.17;;;5.80;99.90;;;;;;10510164;28;20205;-81
2023/01/23 18:58:02;;;;;;;17.43;15.73;;;5.80;99.90;;;;;;10509059;28;21255;-80
2023/01/23 19:03:12;;;;;;;18.23;16.47;;;5.70;99.90;;;;;;10514466;28;21205;-81
2023/01/23 19:08:26;;;;;;;19.00;16.93;;;5.70;99.90;;;;;;10516597;28;20215;-81
2023/01/23 19:13:40;;;;;;;17.87;16.20;;;5.70;99.90;;;;;;10515521;28;20598;-80
2023/01/23 19:18:45;;;;;;;17.80;16.10;;;5.70;99.90;;;;;;10517781;28;20258;-80
2023/01/23 19:23:55;;;;;;;18.20;16.30;;;5.70;99.90;;;;;;10735905;22;20242;-81
2023/01/23 19:28:58;;;;;;;18.80;16.90;;;5.70;99.90;;;;;;10511476;28;20330;-82
2023/01/23 19:34:01;;;;;;;17.43;15.77;;;5.60;99.90;;;;;;10528557;28;20211;-81
2023/01/23 19:39:05;;;;;;;17.23;15.50;;;5.60;99.90;;;;;;10559134;22;20223;-79
2023/01/23 19:44:10;;;;;;;17.60;15.80;;;5.60;99.90;;;;;;10525830;28;20213;-78
2023/01/23 19:49:13;;;;;;;18.98;17.08;;;5.60;99.90;;;;;;10523256;28;20350;-79
2023/01/23 19:54:16;;;;;;;17.43;15.73;;;5.80;99.90;;;;;;10519019;28;20265;-80
2023/01/23 19:59:19;;;;;;;18.00;16.30;;;5.80;99.90;;;;;;10517703;28;20226;-80
2023/01/23 20:04:22;;;;;;;18.57;16.77;;;6.00;99.90;;;;;;10519226;28;20212;-81
2023/01/23 20:09:26;;;;;;;18.67;16.83;;;5.90;99.90;;;;;;10504560;28;20226;-79
2023/01/23 20:14:28;;;;;;;17.17;15.57;;;5.90;99.90;;;;;;10523641;28;20291;-79
2023/01/23 20:19:30;;;;;;;18.13;16.33;;;5.80;99.90;;;;;;10523425;28;20232;-80
2023/01/23 20:24:34;;;;;;;22.33;20.10;;;5.80;99.90;;;;;;10543352;28;20216;-78
2023/01/23 20:29:38;;;;;;;19.53;17.53;;;5.80;99.90;;;;;;10506776;28;20224;-80
2023/01/23 20:34:40;;;;;;;18.63;16.83;;;5.80;99.90;;;;;;10514775;28;20739;-80
2023/01/23 20:39:44;;;;;;;20.57;18.50;;;5.80;99.90;;;;;;10520074;28;20224;-80
2023/01/23 20:44:46;;;;;;;19.13;17.23;;;5.90;99.90;;;;;;10534320;28;20207;-80
2023/01/23 20:49:48;;;;;;;19.03;17.13;;;6.00;99.90;;;;;;10527819;28;20234;-80
2023/01/23 20:54:51;;;;;;;20.23;18.20;;;6.10;99.90;;;;;;10531528;28;20305;-79
2023/01/23 20:59:54;;;;;;;19.20;17.20;;;6.00;99.90;;;;;;10512629;28;20304;-79
2023/01/23 21:04:56;;;;;;;26.52;22.67;;;6.00;99.90;;;;;;10527636;28;20236;-79
2023/01/23 21:09:59;;;;;;;23.50;21.07;;;6.10;99.90;;;;;;10521373;28;20279;-79
2023/01/23 21:15:01;;;;;;;21.50;19.37;;;6.10;99.90;;;;;;10545284;28;20224;-79
2023/01/23 21:20:04;;;;;;;19.20;17.40;;;6.10;99.90;;;;;;10522408;28;20211;-78
2023/01/23 21:25:08;;;;;;;19.37;17.47;;;6.00;99.90;;;;;;10518000;28;20225;-79
2023/01/23 21:30:11;;;;;;;20.33;18.23;;;6.00;99.90;;;;;;10528312;28;20204;-79
2023/01/23 21:35:13;;;;;;;21.37;19.27;;;6.10;99.90;;;;;;10527978;28;20239;-79
2023/01/23 21:40:17;;;;;;;19.67;17.77;;;6.10;99.90;;;;;;10525726;28;20213;-79
2023/01/23 21:45:19;;;;;;;21.60;19.60;;;6.10;99.90;;;;;;10522694;28;20230;-79
2023/01/23 21:50:21;;;;;;;20.03;18.10;;;6.00;99.90;;;;;;10522341;28;20848;-79
2023/01/23 21:55:24;;;;;;;21.75;19.58;;;6.00;99.90;;;;;;10519906;28;20224;-78
2023/01/23 22:05:48;;;;;;;21.07;18.90;;;6.10;99.90;;;;;;10522986;28;20227;-79
2023/01/23 22:10:51;;;;;;;20.87;18.87;;;6.00;99.90;;;;;;10523624;28;20271;-79
2023/01/23 22:15:53;;;;;;;19.60;17.50;;;5.90;99.90;;;;;;10524043;28;20230;-79
2023/01/23 22:20:56;;;;;;;19.80;17.90;;;5.90;99.90;;;;;;10518987;28;20215;-79
2023/01/23 22:26:01;;;;;;;19.70;17.77;;;6.10;99.90;;;;;;10526147;28;20227;-78
2023/01/23 22:31:08;;;;;;;21.90;19.70;;;6.10;99.90;;;;;;10523663;28;20204;-79
2023/01/23 22:36:13;;;;;;;20.50;18.50;;;6.00;99.90;;;;;;10521753;28;20715;-79
2023/01/23 22:41:17;;;;;;;20.37;18.27;;;5.90;99.90;;;;;;10523670;28;20211;-78
2023/01/23 22:46:19;;;;;;;21.53;19.40;;;6.10;99.90;;;;;;10499846;28;20482;-79
2023/01/23 22:51:23;;;;;;;19.83;17.70;;;6.10;99.90;;;;;;10489582;28;20208;-79
2023/01/23 22:56:27;;;;;;;19.80;17.90;;;6.00;99.90;;;;;;10521935;28;20724;-79
2023/01/23 23:01:29;;;;;;;20.80;18.67;;;6.00;99.90;;;;;;10525069;28;20515;-79
2023/01/23 23:06:32;;;;;;;19.20;17.40;;;5.90;99.90;;;;;;10523909;28;20216;-79
2023/01/23 23:11:36;;;;;;;21.43;19.33;;;5.90;99.90;;;;;;10523774;28;20206;-79
2023/01/23 23:16:39;;;;;;;20.70;18.53;;;5.90;99.90;;;;;;10524301;28;20227;-79
2023/01/23 23:21:41;;;;;;;19.30;17.40;;;5.90;99.90;;;;;;10523222;28;20705;-79
2023/01/23 23:26:45;;;;;;;21.70;19.50;;;5.90;99.90;;;;;;10523624;28;21212;-79
2023/01/23 23:31:50;;;;;;;20.27;18.27;;;5.90;99.90;;;;;;10530924;28;20212;-79
2023/01/23 23:36:52;;;;;;;19.33;17.53;;;6.00;99.90;;;;;;10518551;28;20310;-79
2023/01/23 23:41:55;;;;;;;18.90;17.10;;;6.10;99.90;;;;;;10519740;28;20204;-79
2023/01/23 23:46:57;;;;;;;21.07;19.03;;;6.00;99.90;;;;;;10528675;28;20219;-78
2023/01/23 23:51:59;;;;;;;21.47;19.37;;;6.00;99.90;;;;;;10518170;28;20211;-79
2023/01/23 23:57:03;;;;;;;20.77;18.73;;;6.00;99.90;;;;;;10517685;28;20235;-79
